Jamaica, Virginia
Current Conditions -  °F | °C
As of 11:35 PM on Wednesday 26 Nov 2014 (Local Time) from KFYJ Reporting Station
Overcast Overcast  
Wind Chill: 38°   Ceiling: 9000
Heat Index: 41°   Visibility: 10mi
Dew Point: 36°   Wind: 5mph
Humidity: 83%   Direction: 300°WNW
Pressure: 30.06"   Gusts: NA
Location:  37.72°N, 76.7°W
Report Text: KFYJ 270435Z AUTO 30004KT 10SM SCT070 OVC090 05/02 A3006 RMK AO2 T00500023
Loading
Personal Weather Stations






























Interactive Weather Map New forecast layout! Learn more

10-Day Weather Forecast

Advertisements
Track Severe Weather on mobile